createdAt,value
2023-01-26T00:01:10.471Z,64.35
2023-01-26T00:03:36.901Z,65.09
2023-01-26T00:06:04.441Z,64.52
2023-01-26T00:08:31.355Z,64.62
2023-01-26T00:10:57.947Z,64.61
2023-01-26T00:13:24.516Z,64.79
2023-01-26T00:15:51.354Z,64.23
2023-01-26T00:18:18.040Z,65.39
2023-01-26T00:20:45.008Z,65.17
2023-01-26T00:23:11.850Z,65.61
2023-01-26T00:25:40.227Z,65.58
2023-01-26T00:28:06.731Z,65.54
2023-01-26T00:30:33.450Z,65.14
2023-01-26T00:32:59.987Z,64.83
2023-01-26T00:35:26.516Z,64.93
2023-01-26T00:37:54.744Z,65.12
2023-01-26T00:40:21.438Z,65.93
2023-01-26T00:42:47.959Z,67.05
2023-01-26T00:45:14.446Z,65.45
2023-01-26T00:47:42.402Z,64.82
2023-01-26T00:50:09.843Z,64.00
2023-01-26T00:52:36.677Z,64.53
2023-01-26T00:55:03.636Z,65.52
2023-01-26T00:57:30.479Z,65.10
2023-01-26T00:59:56.854Z,64.74
2023-01-26T01:02:23.253Z,65.74
2023-01-26T01:04:49.667Z,65.81
2023-01-26T01:07:16.090Z,65.51
2023-01-26T01:09:42.412Z,64.80
2023-01-26T01:12:08.756Z,64.31
2023-01-26T01:14:35.450Z,64.33
2023-01-26T01:17:01.939Z,65.32
2023-01-26T01:19:28.684Z,66.50
2023-01-26T01:21:55.682Z,66.72
2023-01-26T01:24:22.504Z,65.73
2023-01-26T01:26:49.035Z,64.15
2023-01-26T01:29:15.515Z,64.66
2023-01-26T01:31:43.165Z,65.63
2023-01-26T01:34:09.960Z,66.75
2023-01-26T01:36:36.451Z,67.08
2023-01-26T01:39:03.060Z,65.60
2023-01-26T01:41:29.533Z,65.79
2023-01-26T01:44:14.337Z,65.24
2023-01-26T01:46:45.105Z,63.72
2023-01-26T01:49:11.367Z,63.49
2023-01-26T01:51:41.771Z,63.48
2023-01-26T01:54:11.878Z,64.94
2023-01-26T01:56:39.917Z,64.82
2023-01-26T01:59:07.848Z,65.22
2023-01-26T02:01:34.570Z,65.59
2023-01-26T02:04:02.361Z,65.51
2023-01-26T02:06:33.993Z,64.63
2023-01-26T02:09:00.852Z,64.65
2023-01-26T02:11:27.374Z,64.89
2023-01-26T02:13:54.442Z,65.37
2023-01-26T02:16:21.093Z,65.76
2023-01-26T02:18:47.879Z,64.94
2023-01-26T02:21:17.414Z,65.41
2023-01-26T02:23:52.807Z,65.56
2023-01-26T02:26:27.489Z,66.15
2023-01-26T02:28:54.373Z,66.10
2023-01-26T02:31:23.422Z,67.15
2023-01-26T02:33:50.068Z,66.55
2023-01-26T02:36:24.578Z,66.00
2023-01-26T02:38:55.953Z,66.17
2023-01-26T02:41:41.482Z,65.96
2023-01-26T02:44:09.532Z,65.60
2023-01-26T02:46:36.059Z,65.61
2023-01-26T02:49:21.472Z,64.42
2023-01-26T02:51:47.788Z,64.65
2023-01-26T02:54:34.097Z,64.39
2023-01-26T02:57:00.712Z,64.35
2023-01-26T02:59:27.102Z,64.92
2023-01-26T03:01:55.572Z,64.40
2023-01-26T03:04:22.315Z,65.09
2023-01-26T03:06:48.622Z,66.34
2023-01-26T03:09:14.953Z,64.82
2023-01-26T03:11:44.258Z,64.10
2023-01-26T03:14:11.969Z,65.18
2023-01-26T03:16:39.075Z,65.12
2023-01-26T03:19:24.533Z,65.68
2023-01-26T03:22:29.478Z,65.84
2023-01-26T03:25:25.207Z,66.05
2023-01-26T03:27:51.615Z,66.14
2023-01-26T03:30:19.251Z,65.14
2023-01-26T03:32:45.683Z,64.76
2023-01-26T03:35:15.245Z,65.01
2023-01-26T03:37:43.684Z,65.06
2023-01-26T03:40:30.641Z,67.46
2023-01-26T03:43:15.455Z,66.81
2023-01-26T03:46:00.548Z,66.25
2023-01-26T03:48:45.691Z,65.12
2023-01-26T03:51:30.572Z,64.57
2023-01-26T03:54:15.569Z,66.36
2023-01-26T03:56:42.042Z,67.44
2023-01-26T03:59:08.601Z,66.54
2023-01-26T04:01:36.858Z,65.78
2023-01-26T04:04:22.058Z,65.27
2023-01-26T04:07:07.462Z,64.62
2023-01-26T04:09:34.227Z,65.70
2023-01-26T04:12:00.622Z,65.19
2023-01-26T04:14:49.828Z,64.73
2023-01-26T04:17:35.997Z,65.60
2023-01-26T04:20:20.784Z,67.03
2023-01-26T04:22:47.138Z,67.51
2023-01-26T04:25:17.695Z,66.01
2023-01-26T04:27:44.272Z,65.97
2023-01-26T04:30:12.330Z,65.39
2023-01-26T04:32:39.114Z,64.36
2023-01-26T04:35:07.609Z,65.73
2023-01-26T04:37:34.089Z,64.81
2023-01-26T04:40:00.773Z,64.13
2023-01-26T04:42:27.551Z,65.47
2023-01-26T04:44:54.455Z,64.72
2023-01-26T04:47:21.436Z,65.00
2023-01-26T04:49:48.276Z,65.00
2023-01-26T04:52:14.999Z,64.02
2023-01-26T04:54:41.552Z,64.88
2023-01-26T04:57:08.562Z,64.16
2023-01-26T04:59:35.099Z,65.28
2023-01-26T05:02:01.475Z,65.26
2023-01-26T05:04:28.350Z,66.45
2023-01-26T05:06:58.525Z,66.62
2023-01-26T05:09:25.156Z,65.93
2023-01-26T05:11:51.587Z,66.69
2023-01-26T05:14:21.576Z,66.81
2023-01-26T05:16:48.307Z,65.41
2023-01-26T05:19:15.282Z,66.24
2023-01-26T05:21:44.367Z,66.39
2023-01-26T05:24:12.382Z,66.79
2023-01-26T05:26:39.205Z,65.62
2023-01-26T05:29:17.888Z,66.02
2023-01-26T05:31:44.240Z,65.62
2023-01-26T05:34:10.701Z,65.93
2023-01-26T05:36:51.349Z,65.29
2023-01-26T05:39:17.711Z,65.08
2023-01-26T05:41:48.636Z,64.43
2023-01-26T05:44:14.929Z,64.46
2023-01-26T05:46:42.633Z,64.17
2023-01-26T05:49:09.025Z,63.29
2023-01-26T05:51:35.364Z,64.01
2023-01-26T05:54:01.677Z,64.34
2023-01-26T05:56:28.220Z,64.82
2023-01-26T05:58:54.528Z,65.36
2023-01-26T06:01:20.983Z,65.64
2023-01-26T06:03:47.374Z,65.72
2023-01-26T06:06:13.673Z,65.82
2023-01-26T06:08:39.987Z,65.26
2023-01-26T06:11:06.379Z,65.11
2023-01-26T06:13:32.685Z,66.05
2023-01-26T06:16:02.502Z,64.59
2023-01-26T06:18:28.810Z,65.37
2023-01-26T06:20:58.316Z,64.50
2023-01-26T06:23:24.635Z,64.11
2023-01-26T06:25:52.091Z,64.56
2023-01-26T06:28:20.090Z,65.40
2023-01-26T06:30:46.554Z,65.24
2023-01-26T06:33:13.022Z,64.71
2023-01-26T06:35:39.334Z,65.31
2023-01-26T06:38:05.754Z,65.83
2023-01-26T06:40:32.152Z,65.53
2023-01-26T06:42:58.484Z,64.87
2023-01-26T06:45:24.825Z,64.12
2023-01-26T06:47:51.379Z,64.99
2023-01-26T06:50:23.074Z,65.53
2023-01-26T06:52:55.767Z,65.56
2023-01-26T06:55:23.858Z,64.55
2023-01-26T06:57:50.154Z,65.95
2023-01-26T07:00:16.858Z,65.77
2023-01-26T07:02:43.246Z,65.98
2023-01-26T07:05:11.131Z,66.28
2023-01-26T07:07:38.322Z,66.55
2023-01-26T07:10:06.747Z,65.42
2023-01-26T07:12:44.511Z,64.48
2023-01-26T07:15:11.714Z,64.40
2023-01-26T07:17:38.974Z,65.17
2023-01-26T07:20:06.105Z,66.40
2023-01-26T07:22:32.444Z,66.01
2023-01-26T07:24:58.768Z,65.40
2023-01-26T07:27:25.075Z,66.70
2023-01-26T07:29:51.559Z,66.73
2023-01-26T07:32:17.927Z,66.42
2023-01-26T07:34:44.235Z,66.56
2023-01-26T07:37:10.570Z,67.01
2023-01-26T07:39:36.898Z,66.63
2023-01-26T07:42:03.270Z,67.06
2023-01-26T07:44:29.585Z,66.59
2023-01-26T07:46:56.037Z,66.61
2023-01-26T07:49:22.415Z,65.76
2023-01-26T07:51:48.775Z,65.46
2023-01-26T07:54:15.095Z,65.02
2023-01-26T07:56:41.483Z,65.18
2023-01-26T07:59:10.297Z,65.02
2023-01-26T08:01:36.622Z,64.52
2023-01-26T08:04:03.250Z,64.39
2023-01-26T08:06:29.565Z,65.57
2023-01-26T08:08:56.035Z,65.53
2023-01-26T08:11:24.264Z,66.33
2023-01-26T08:13:50.665Z,66.36
2023-01-26T08:16:17.072Z,67.35
2023-01-26T08:18:44.426Z,66.44
2023-01-26T08:21:12.020Z,65.46
2023-01-26T08:23:38.492Z,65.76
2023-01-26T08:26:06.141Z,68.03
2023-01-26T08:28:33.037Z,70.31
2023-01-26T08:31:07.210Z,68.08
2023-01-26T08:33:33.997Z,70.24
2023-01-26T08:36:04.597Z,69.18
2023-01-26T08:38:35.203Z,66.99
2023-01-26T08:41:02.300Z,66.62
2023-01-26T08:43:28.924Z,65.61
2023-01-26T08:45:55.348Z,65.54
2023-01-26T08:48:21.988Z,66.39
2023-01-26T08:50:48.356Z,65.64
2023-01-26T08:53:14.719Z,65.13
2023-01-26T08:55:41.106Z,64.63
2023-01-26T08:58:07.467Z,63.94
2023-01-26T09:00:34.167Z,64.65
2023-01-26T09:03:04.849Z,64.58
2023-01-26T09:05:32.394Z,64.72
2023-01-26T09:07:58.790Z,64.74
2023-01-26T09:10:25.527Z,64.38
2023-01-26T09:12:51.861Z,65.77
2023-01-26T09:15:18.302Z,64.96
2023-01-26T09:17:44.700Z,64.53
2023-01-26T09:20:11.858Z,64.38
2023-01-26T09:22:38.387Z,67.51
2023-01-26T09:25:04.942Z,68.67
2023-01-26T09:27:31.332Z,68.57
2023-01-26T09:29:57.771Z,70.45
2023-01-26T09:32:24.135Z,69.71
2023-01-26T09:34:50.458Z,69.59
2023-01-26T09:37:17.472Z,71.18
2023-01-26T09:39:43.920Z,69.48
2023-01-26T09:42:11.128Z,67.49
2023-01-26T09:44:47.947Z,66.58
2023-01-26T09:47:20.112Z,66.59
2023-01-26T09:49:56.765Z,66.69
2023-01-26T09:52:28.224Z,69.50
2023-01-26T09:54:59.502Z,67.66
2023-01-26T09:57:52.224Z,68.28
2023-01-26T10:00:25.151Z,67.21
2023-01-26T10:03:11.071Z,65.85
2023-01-26T10:05:37.355Z,66.34
2023-01-26T10:08:05.250Z,68.02
2023-01-26T10:10:34.821Z,66.70
2023-01-26T10:13:02.008Z,65.88
2023-01-26T10:15:31.238Z,65.89
2023-01-26T10:18:02.534Z,66.21
2023-01-26T10:20:31.861Z,65.89
2023-01-26T10:23:01.100Z,67.01
2023-01-26T10:25:27.515Z,67.49
2023-01-26T10:27:54.504Z,69.73
2023-01-26T10:30:21.529Z,67.98
2023-01-26T10:32:50.917Z,67.04
2023-01-26T10:35:19.819Z,66.95
2023-01-26T10:37:46.946Z,65.84
2023-01-26T10:40:13.939Z,65.11
2023-01-26T10:42:41.047Z,66.82
2023-01-26T10:45:22.657Z,65.02
2023-01-26T10:48:07.859Z,64.72
2023-01-26T10:50:34.328Z,65.55
2023-01-26T10:53:02.026Z,67.39
2023-01-26T10:55:29.348Z,66.15
2023-01-26T10:57:56.132Z,64.76
2023-01-26T11:00:22.738Z,66.02
2023-01-26T11:02:50.751Z,66.00
2023-01-26T11:05:24.501Z,65.90
2023-01-26T11:07:54.205Z,65.10
2023-01-26T11:10:20.935Z,66.24
2023-01-26T11:12:48.114Z,69.56
2023-01-26T11:15:19.559Z,68.39
2023-01-26T11:17:50.445Z,68.96
2023-01-26T11:20:26.711Z,67.84
2023-01-26T11:23:03.082Z,66.94
2023-01-26T11:25:35.335Z,66.28
2023-01-26T11:28:20.342Z,68.60
2023-01-26T11:31:08.021Z,67.76
2023-01-26T11:33:34.331Z,66.18
2023-01-26T11:36:06.459Z,67.12
2023-01-26T11:38:38.430Z,67.10
2023-01-26T11:41:04.950Z,67.21
2023-01-26T11:43:54.749Z,67.50
2023-01-26T11:46:40.045Z,65.86
2023-01-26T11:49:06.334Z,65.96
2023-01-26T11:51:32.844Z,69.49
2023-01-26T11:54:09.021Z,69.03
2023-01-26T11:56:38.574Z,68.58
2023-01-26T11:59:17.042Z,67.21
2023-01-26T12:01:51.902Z,67.74
2023-01-26T12:04:19.899Z,68.77
2023-01-26T12:06:48.428Z,69.02
2023-01-26T12:09:21.433Z,67.90
2023-01-26T12:12:05.683Z,67.32
2023-01-26T12:14:50.068Z,70.36
2023-01-26T12:17:19.647Z,69.00
2023-01-26T12:20:04.561Z,69.63
2023-01-26T12:22:34.348Z,70.12
2023-01-26T12:25:20.474Z,70.36
2023-01-26T12:28:07.298Z,69.66
2023-01-26T12:30:33.764Z,69.45
2023-01-26T12:33:00.492Z,73.40
2023-01-26T12:35:45.379Z,72.89
2023-01-26T12:38:17.961Z,70.87
2023-01-26T12:40:54.767Z,76.18
2023-01-26T12:43:27.665Z,76.58
2023-01-26T12:45:56.051Z,75.82
2023-01-26T12:48:27.873Z,76.81
2023-01-26T12:51:02.128Z,79.48
2023-01-26T12:53:32.185Z,77.28
2023-01-26T12:56:01.592Z,78.08
2023-01-26T12:58:31.653Z,84.03
2023-01-26T13:01:01.218Z,80.83
2023-01-26T13:03:39.517Z,81.94
2023-01-26T13:06:09.086Z,88.49
2023-01-26T13:08:35.530Z,90.33
2023-01-26T13:11:08.931Z,91.03
2023-01-26T13:13:36.263Z,94.03
2023-01-26T13:16:15.118Z,89.96
2023-01-26T13:18:55.619Z,92.40
2023-01-26T13:21:42.753Z,92.34
2023-01-26T13:24:18.307Z,91.06
2023-01-26T13:26:46.090Z,90.20
2023-01-26T13:29:32.709Z,96.68
2023-01-26T13:32:00.740Z,96.14
2023-01-26T13:34:29.393Z,100.00
2023-01-26T13:36:59.945Z,100.00
2023-01-26T13:39:29.129Z,98.85
2023-01-26T13:41:55.438Z,100.00
2023-01-26T13:44:25.867Z,96.71
2023-01-26T13:46:57.167Z,96.63
2023-01-26T13:49:27.857Z,94.49
2023-01-26T13:51:54.387Z,91.58
2023-01-26T13:54:21.597Z,95.78
2023-01-26T13:57:01.538Z,98.35
2023-01-26T13:59:27.888Z,95.06
2023-01-26T14:01:55.525Z,96.54
2023-01-26T14:04:23.119Z,100.00
2023-01-26T14:07:06.919Z,100.00
2023-01-26T14:09:35.049Z,100.00
2023-01-26T14:12:03.387Z,99.41
2023-01-26T14:14:33.023Z,98.83
2023-01-26T14:16:59.855Z,100.00
2023-01-26T14:19:26.827Z,99.85
2023-01-26T14:21:54.697Z,100.00
2023-01-26T14:24:32.304Z,100.00
2023-01-26T14:26:58.691Z,100.00
2023-01-26T14:29:28.741Z,100.00
2023-01-26T14:31:57.805Z,100.00
2023-01-26T14:34:27.909Z,100.00
2023-01-26T14:37:13.835Z,100.00
2023-01-26T14:39:43.053Z,100.00
2023-01-26T14:42:14.453Z,100.00
2023-01-26T14:44:41.013Z,100.00
2023-01-26T14:47:27.997Z,100.00
2023-01-26T14:49:58.878Z,100.00
2023-01-26T14:52:27.124Z,100.00
2023-01-26T14:54:54.776Z,99.31
2023-01-26T14:57:23.775Z,99.70
2023-01-26T14:59:51.652Z,98.00
2023-01-26T15:02:18.297Z,100.00
2023-01-26T15:04:48.170Z,98.47
2023-01-26T15:07:21.873Z,98.76
2023-01-26T15:09:52.022Z,94.00
2023-01-26T15:12:19.811Z,92.82
2023-01-26T15:14:46.730Z,93.60
2023-01-26T15:17:32.088Z,92.29
2023-01-26T15:19:58.623Z,91.71
2023-01-26T15:22:26.304Z,95.22
2023-01-26T15:25:04.769Z,94.71
2023-01-26T15:27:35.381Z,93.45
2023-01-26T15:30:08.582Z,91.53
2023-01-26T15:32:40.455Z,87.22
2023-01-26T15:35:31.043Z,81.81
2023-01-26T15:38:10.825Z,83.04
2023-01-26T15:40:37.684Z,84.57
2023-01-26T15:43:16.543Z,84.92
2023-01-26T15:45:50.901Z,82.51
2023-01-26T15:48:17.956Z,81.10
2023-01-26T15:50:47.811Z,80.48
2023-01-26T15:53:15.258Z,81.87
2023-01-26T15:55:42.266Z,82.31
2023-01-26T15:58:09.219Z,82.46
2023-01-26T16:00:37.235Z,81.50
2023-01-26T16:03:12.705Z,84.04
2023-01-26T16:05:39.204Z,85.40
2023-01-26T16:08:05.938Z,83.91
2023-01-26T16:10:32.613Z,84.18
2023-01-26T16:13:00.468Z,82.46
2023-01-26T16:15:43.686Z,83.32
2023-01-26T16:18:12.760Z,83.56
2023-01-26T16:20:40.359Z,85.62
2023-01-26T16:23:15.456Z,85.50
2023-01-26T16:25:42.697Z,84.36
2023-01-26T16:28:09.755Z,85.06
2023-01-26T16:30:37.050Z,83.13
2023-01-26T16:33:03.950Z,86.63
2023-01-26T16:35:31.061Z,87.71
2023-01-26T16:37:59.173Z,88.00
2023-01-26T16:40:25.941Z,85.63
2023-01-26T16:42:56.773Z,84.19
2023-01-26T16:45:26.974Z,85.78
2023-01-26T16:47:56.515Z,88.28
2023-01-26T16:50:24.027Z,91.60
2023-01-26T16:52:50.973Z,92.83
2023-01-26T16:55:17.998Z,93.66
2023-01-26T16:57:45.234Z,95.04
2023-01-26T17:00:16.679Z,93.30
2023-01-26T17:02:44.590Z,95.28
2023-01-26T17:05:15.368Z,95.33
2023-01-26T17:07:42.143Z,100.00
2023-01-26T17:10:09.904Z,100.00
2023-01-26T17:12:36.693Z,100.00
2023-01-26T17:15:07.023Z,99.82
2023-01-26T17:17:35.718Z,96.87
2023-01-26T17:20:18.060Z,95.08
2023-01-26T17:22:45.966Z,94.11
2023-01-26T17:25:15.310Z,93.36
2023-01-26T17:27:44.082Z,91.24
2023-01-26T17:30:13.024Z,93.97
2023-01-26T17:32:39.395Z,91.26
2023-01-26T17:35:07.277Z,90.61
2023-01-26T17:37:33.797Z,90.14
2023-01-26T17:40:13.922Z,93.21
2023-01-26T17:42:40.332Z,93.54
2023-01-26T17:45:07.944Z,91.61
2023-01-26T17:47:40.448Z,91.58
2023-01-26T17:50:07.195Z,88.27
2023-01-26T17:52:35.421Z,86.07
2023-01-26T17:55:05.216Z,84.05
2023-01-26T17:57:32.408Z,83.18
2023-01-26T17:59:58.966Z,84.24
2023-01-26T18:02:25.584Z,80.90
2023-01-26T18:04:52.101Z,82.23
2023-01-26T18:07:18.564Z,81.04
2023-01-26T18:09:45.054Z,83.68
2023-01-26T18:12:11.374Z,82.34
2023-01-26T18:14:37.884Z,80.54
2023-01-26T18:17:04.321Z,81.25
2023-01-26T18:19:30.825Z,81.28
2023-01-26T18:21:57.233Z,82.58
2023-01-26T18:24:23.671Z,83.03
2023-01-26T18:26:50.521Z,85.08
2023-01-26T18:29:17.092Z,85.38
2023-01-26T18:31:43.688Z,84.65
2023-01-26T18:34:10.512Z,89.64
2023-01-26T18:36:37.027Z,92.62
2023-01-26T18:39:05.155Z,94.16
2023-01-26T18:41:32.867Z,92.75
2023-01-26T18:44:00.153Z,95.80
2023-01-26T18:46:27.386Z,97.54
2023-01-26T18:48:54.570Z,96.35
2023-01-26T18:51:22.896Z,94.91
2023-01-26T18:53:49.607Z,95.05
2023-01-26T18:56:17.462Z,94.61
2023-01-26T18:58:44.325Z,93.77
2023-01-26T19:01:12.568Z,89.63
2023-01-26T19:03:42.456Z,92.52
2023-01-26T19:06:09.409Z,91.94
2023-01-26T19:08:36.754Z,91.89
2023-01-26T19:11:04.697Z,94.84
2023-01-26T19:13:32.231Z,97.67
2023-01-26T19:15:59.359Z,96.78
2023-01-26T19:18:25.903Z,94.23
2023-01-26T19:21:00.122Z,100.00
2023-01-26T19:23:27.996Z,100.00
2023-01-26T19:25:54.782Z,100.00
2023-01-26T19:28:21.709Z,100.00
2023-01-26T19:30:48.704Z,100.00
2023-01-26T19:33:24.386Z,100.00
2023-01-26T19:35:51.663Z,100.00
2023-01-26T19:38:20.397Z,100.00
2023-01-26T19:40:48.328Z,100.00
2023-01-26T19:43:15.955Z,100.00
2023-01-26T19:45:47.808Z,100.00
2023-01-26T19:48:14.894Z,100.00
2023-01-26T19:50:41.827Z,99.08
2023-01-26T19:53:11.509Z,97.71
2023-01-26T19:55:37.974Z,98.97
2023-01-26T19:58:04.906Z,98.16
2023-01-26T20:00:31.635Z,97.50
2023-01-26T20:02:58.416Z,95.15
2023-01-26T20:05:25.420Z,94.39
2023-01-26T20:07:54.842Z,96.15
2023-01-26T20:10:21.604Z,99.91
2023-01-26T20:12:48.126Z,97.11
2023-01-26T20:15:14.988Z,100.00
2023-01-26T20:17:43.016Z,98.73
2023-01-26T20:20:12.174Z,100.00
2023-01-26T20:22:39.601Z,100.00
2023-01-26T20:25:08.085Z,100.00
2023-01-26T20:27:35.059Z,100.00
2023-01-26T20:30:02.011Z,100.00
2023-01-26T20:32:28.672Z,100.00
2023-01-26T20:34:55.499Z,100.00
2023-01-26T20:37:21.996Z,100.00
2023-01-26T20:39:49.534Z,100.00
2023-01-26T20:42:18.595Z,100.00
2023-01-26T20:44:45.120Z,100.00
2023-01-26T20:47:11.964Z,100.00
2023-01-26T20:49:38.513Z,100.00
2023-01-26T20:52:07.631Z,100.00
2023-01-26T20:54:36.095Z,100.00
2023-01-26T20:57:03.620Z,99.36
2023-01-26T20:59:31.028Z,96.75
2023-01-26T21:01:57.840Z,98.28
2023-01-26T21:04:25.044Z,96.42
2023-01-26T21:06:52.360Z,96.23
2023-01-26T21:09:19.159Z,98.82
2023-01-26T21:11:45.992Z,97.05
2023-01-26T21:14:13.713Z,98.47
2023-01-26T21:16:42.158Z,97.73
2023-01-26T21:19:09.626Z,95.29
2023-01-26T21:21:36.279Z,95.29
2023-01-26T21:24:03.001Z,95.49
2023-01-26T21:26:30.124Z,94.29
2023-01-26T21:28:59.198Z,95.65
2023-01-26T21:31:27.300Z,95.59
2023-01-26T21:33:54.380Z,96.31
2023-01-26T21:36:22.627Z,94.72
2023-01-26T21:38:50.933Z,94.58
2023-01-26T21:41:40.793Z,95.51
2023-01-26T21:44:20.807Z,94.75
2023-01-26T21:46:48.100Z,93.36
2023-01-26T21:49:15.027Z,94.79
2023-01-26T21:52:00.446Z,93.66
2023-01-26T21:54:28.106Z,94.83
2023-01-26T21:56:57.975Z,94.79
2023-01-26T21:59:24.837Z,93.86
2023-01-26T22:01:52.485Z,93.27
2023-01-26T22:04:23.670Z,93.89
2023-01-26T22:06:50.595Z,93.97
2023-01-26T22:09:17.976Z,95.52
2023-01-26T22:11:45.034Z,93.59
2023-01-26T22:14:14.016Z,91.84
2023-01-26T22:16:41.103Z,91.53
2023-01-26T22:19:09.060Z,91.62
2023-01-26T22:21:35.991Z,90.95
2023-01-26T22:24:02.939Z,90.88
2023-01-26T22:26:29.678Z,88.90
2023-01-26T22:28:58.182Z,90.79
2023-01-26T22:31:27.321Z,91.89
2023-01-26T22:33:54.925Z,90.90
2023-01-26T22:36:22.523Z,92.52
2023-01-26T22:38:49.481Z,90.46
2023-01-26T22:41:19.776Z,90.13
2023-01-26T22:43:48.242Z,94.48
2023-01-26T22:46:16.065Z,92.46
2023-01-26T22:48:43.040Z,95.45
2023-01-26T22:51:13.607Z,93.78
2023-01-26T22:53:40.683Z,93.69
2023-01-26T22:56:07.789Z,93.33
2023-01-26T22:58:39.649Z,94.32
2023-01-26T23:01:12.366Z,95.88
2023-01-26T23:03:42.072Z,97.81
2023-01-26T23:06:11.018Z,95.95
2023-01-26T23:08:37.559Z,96.65
2023-01-26T23:11:09.440Z,96.09
2023-01-26T23:13:36.122Z,97.46
2023-01-26T23:16:03.106Z,97.72
2023-01-26T23:18:29.913Z,99.88
2023-01-26T23:21:01.539Z,98.06
2023-01-26T23:23:29.793Z,96.17
2023-01-26T23:25:57.737Z,99.76
2023-01-26T23:28:25.413Z,100.00
2023-01-26T23:30:52.647Z,100.00
2023-01-26T23:33:20.329Z,100.00
2023-01-26T23:35:47.704Z,98.33
2023-01-26T23:38:15.005Z,97.92
2023-01-26T23:40:42.959Z,99.43
2023-01-26T23:43:16.722Z,96.51
2023-01-26T23:45:44.593Z,100.00
2023-01-26T23:48:11.531Z,100.00
2023-01-26T23:50:38.166Z,99.71
2023-01-26T23:53:05.032Z,100.00
2023-01-26T23:55:33.211Z,99.68
2023-01-26T23:58:01.043Z,99.48
